Blue Hill, Arkansas
Current Conditions -  °F | °C
As of 4:58 AM on Wednesday 26 Nov 2014 (Local Time) from KLRF Reporting Station
Clear Clear  
Wind Chill: 27°   Ceiling: Unl
Heat Index: 27°   Visibility: 10mi
Dew Point: 24°   Wind: 2mph
Humidity: 92%   Direction: 80°E
Pressure: 30.09"   Gusts: NA
Location:  34.868°N, 92.3217°W
Report Text: KLRF 261058Z AUTO 08002KT 10SM CLR M03/M04 A3009 RMK AO2 SLP194 T10301042
Loading
Personal Weather Stations






























Interactive Weather Map New forecast layout! Learn more

10-Day Weather Forecast

Advertisements
Track Severe Weather on mobile